createdAt,value
2023-02-21T00:00:42.031Z,0
2023-02-21T00:05:46.217Z,0
2023-02-21T00:10:50.327Z,0
2023-02-21T00:15:54.474Z,0
2023-02-21T00:20:58.629Z,0
2023-02-21T00:26:02.816Z,0
2023-02-21T00:31:07.104Z,0
2023-02-21T00:36:11.143Z,0
2023-02-21T00:41:15.585Z,0
2023-02-21T00:46:19.481Z,0
2023-02-21T00:51:23.590Z,0
2023-02-21T00:56:27.794Z,0
2023-02-21T01:01:31.951Z,0
2023-02-21T01:06:36.084Z,0
2023-02-21T01:11:40.261Z,0
2023-02-21T01:21:48.623Z,0
2023-02-21T01:26:50.880Z,0
2023-02-21T01:31:54.994Z,0
2023-02-21T01:36:57.309Z,0
2023-02-21T01:42:01.452Z,0
2023-02-21T01:47:05.651Z,0
2023-02-21T01:52:09.779Z,0
2023-02-21T01:57:13.930Z,0
2023-02-21T02:02:18.105Z,0
2023-02-21T02:07:22.250Z,0
2023-02-21T02:12:26.449Z,0
2023-02-21T02:17:30.598Z,0
2023-02-21T02:22:34.738Z,0
2023-02-21T02:27:38.939Z,0
2023-02-21T02:32:43.089Z,0
2023-02-21T02:37:47.235Z,0
2023-02-21T02:42:51.410Z,0
2023-02-21T02:47:55.553Z,0
2023-02-21T02:52:59.722Z,0
2023-02-21T02:58:03.904Z,0
2023-02-21T03:03:08.042Z,0
2023-02-21T03:08:12.379Z,0
2023-02-21T03:18:20.575Z,0
2023-02-21T03:23:24.708Z,0
2023-02-21T03:28:26.997Z,0
2023-02-21T03:33:31.152Z,0
2023-02-21T03:38:35.292Z,0
2023-02-21T03:43:39.438Z,0
2023-02-21T03:48:43.629Z,0
2023-02-21T03:53:47.803Z,0
2023-02-21T03:58:51.956Z,0
2023-02-21T04:03:56.120Z,0
2023-02-21T04:09:00.300Z,0
2023-02-21T04:14:04.474Z,0
2023-02-21T04:19:08.651Z,0
2023-02-21T04:24:12.779Z,0
2023-02-21T04:29:16.911Z,0
2023-02-21T04:34:21.069Z,0
2023-02-21T04:39:25.271Z,0
2023-02-21T04:44:29.420Z,0
2023-02-21T04:49:33.600Z,0
2023-02-21T04:54:37.739Z,0
2023-02-21T04:59:41.909Z,0
2023-02-21T05:04:46.053Z,0
2023-02-21T05:09:50.241Z,0
2023-02-21T05:14:52.502Z,0
2023-02-21T05:19:56.687Z,0
2023-02-21T05:24:58.913Z,0
2023-02-21T05:30:03.307Z,0
2023-02-21T05:35:05.456Z,0
2023-02-21T05:40:09.558Z,0
2023-02-21T05:45:13.708Z,0
2023-02-21T05:50:17.848Z,0
2023-02-21T05:55:22.011Z,0
2023-02-21T06:00:26.188Z,0
2023-02-21T06:05:30.358Z,0
2023-02-21T06:10:34.486Z,0
2023-02-21T06:15:38.683Z,0
2023-02-21T06:20:42.807Z,2
2023-02-21T06:25:47.009Z,5
2023-02-21T06:30:51.329Z,12
2023-02-21T06:35:55.346Z,27
2023-02-21T06:40:59.472Z,38
2023-02-21T06:46:03.766Z,61
2023-02-21T06:51:07.797Z,80
2023-02-21T06:56:11.949Z,108
2023-02-21T07:01:16.562Z,144
2023-02-21T07:06:20.298Z,180
2023-02-21T07:11:24.428Z,210
2023-02-21T07:16:28.602Z,217
2023-02-21T07:21:30.944Z,302
2023-02-21T07:26:35.099Z,346
2023-02-21T07:31:37.382Z,340
2023-02-21T07:36:41.464Z,387
2023-02-21T07:41:45.661Z,610
2023-02-21T07:46:49.900Z,1014
2023-02-21T07:51:53.981Z,1066
2023-02-21T07:56:58.155Z,1095
2023-02-21T08:02:02.335Z,1115
2023-02-21T08:07:06.482Z,801
2023-02-21T08:12:11.631Z,985
2023-02-21T08:17:14.790Z,1187
2023-02-21T08:22:18.981Z,1102
2023-02-21T08:27:23.119Z,1120
2023-02-21T08:32:27.325Z,1165
2023-02-21T08:37:31.450Z,1075
2023-02-21T08:42:35.580Z,1161
2023-02-21T08:47:39.752Z,1058
2023-02-21T08:52:43.940Z,1291
2023-02-21T08:57:48.080Z,1333
2023-02-21T09:02:52.261Z,1580
2023-02-21T09:07:56.397Z,1463
2023-02-21T09:13:00.596Z,1581
2023-02-21T09:18:02.862Z,1568
2023-02-21T09:23:07.011Z,2035
2023-02-21T09:28:09.312Z,1579
2023-02-21T09:33:13.434Z,1544
2023-02-21T09:38:17.632Z,1438
2023-02-21T09:43:21.772Z,1617
2023-02-21T09:48:26.457Z,2018
2023-02-21T09:53:30.090Z,2145
2023-02-21T09:58:34.228Z,2614
2023-02-21T10:03:38.436Z,2104
2023-02-21T10:08:42.573Z,2146
2023-02-21T10:13:46.717Z,2783
2023-02-21T10:18:50.894Z,2964
2023-02-21T10:23:55.081Z,2721
2023-02-21T10:28:59.250Z,2562
2023-02-21T10:34:03.418Z,3104
2023-02-21T10:39:07.550Z,3300
2023-02-21T10:44:11.718Z,3240
2023-02-21T10:49:15.871Z,3623
2023-02-21T10:54:20.004Z,3873
2023-02-21T10:59:24.256Z,3157
2023-02-21T11:04:28.337Z,3805
2023-02-21T11:09:32.497Z,4339
2023-02-21T11:14:34.781Z,4529
2023-02-21T11:19:38.974Z,4652
2023-02-21T11:24:41.253Z,7164
2023-02-21T11:29:45.349Z,7422
2023-02-21T11:34:49.591Z,8804
2023-02-21T11:39:53.729Z,9586
2023-02-21T11:44:57.862Z,9916
2023-02-21T11:50:02.070Z,8640
2023-02-21T11:55:06.187Z,7785
2023-02-21T12:00:10.346Z,7720
2023-02-21T12:05:14.525Z,7431
2023-02-21T12:10:18.645Z,7723
2023-02-21T12:15:22.877Z,7388
2023-02-21T12:20:27.005Z,7189
2023-02-21T12:25:31.158Z,6440
2023-02-21T12:30:35.348Z,4753
2023-02-21T12:35:39.630Z,4887
2023-02-21T12:40:43.667Z,4190
2023-02-21T12:45:47.794Z,3677
2023-02-21T12:50:51.987Z,3384
2023-02-21T12:55:56.153Z,3694
2023-02-21T13:01:00.254Z,3292
2023-02-21T13:06:04.445Z,3798
2023-02-21T13:11:06.716Z,3857
2023-02-21T13:16:10.916Z,3794
2023-02-21T13:21:15.400Z,4338
2023-02-21T13:26:19.198Z,4430
2023-02-21T13:31:23.419Z,3935
2023-02-21T13:36:27.568Z,3671
2023-02-21T13:41:31.682Z,3822
2023-02-21T13:46:35.868Z,3706
2023-02-21T13:51:39.980Z,3250
2023-02-21T13:56:44.166Z,2714
2023-02-21T14:01:48.330Z,2629
2023-02-21T14:06:52.494Z,2242
2023-02-21T14:11:56.669Z,2441
2023-02-21T14:17:00.826Z,2695
2023-02-21T14:22:04.972Z,2593
2023-02-21T14:27:12.010Z,2529
2023-02-21T14:32:13.416Z,2322
2023-02-21T14:37:17.433Z,2040
2023-02-21T14:42:21.652Z,2170
2023-02-21T14:47:25.808Z,1958
2023-02-21T14:52:29.918Z,1740
2023-02-21T14:57:32.208Z,1845
2023-02-21T15:02:36.370Z,1840
2023-02-21T15:07:40.519Z,1490
2023-02-21T15:12:44.874Z,1489
2023-02-21T15:17:48.870Z,1541
2023-02-21T15:22:53.029Z,1361
2023-02-21T15:27:57.154Z,1325
2023-02-21T15:33:01.364Z,1213
2023-02-21T15:38:05.543Z,1100
2023-02-21T15:43:09.689Z,993
2023-02-21T15:48:13.823Z,884
2023-02-21T15:53:18.029Z,922
2023-02-21T15:58:22.150Z,801
2023-02-21T16:03:26.362Z,599
2023-02-21T16:08:28.599Z,622
2023-02-21T16:13:32.760Z,567
2023-02-21T16:18:36.902Z,462
2023-02-21T16:23:41.075Z,436
2023-02-21T16:28:45.206Z,445
2023-02-21T16:33:49.380Z,402
2023-02-21T16:38:53.548Z,291
2023-02-21T16:43:55.838Z,198
2023-02-21T16:49:00.089Z,137
2023-02-21T16:54:02.273Z,98
2023-02-21T16:59:06.444Z,81
2023-02-21T17:04:08.818Z,36
2023-02-21T17:09:12.862Z,24
2023-02-21T17:14:17.019Z,10
2023-02-21T17:19:21.170Z,5
2023-02-21T17:24:25.372Z,1
2023-02-21T17:29:29.506Z,0
2023-02-21T17:34:33.689Z,0
2023-02-21T17:39:37.825Z,0
2023-02-21T17:44:42.037Z,0
2023-02-21T17:49:46.174Z,0
2023-02-21T17:54:50.325Z,0
2023-02-21T17:59:54.467Z,0
2023-02-21T18:04:58.645Z,0
2023-02-21T18:10:02.809Z,0
2023-02-21T18:15:06.981Z,0
2023-02-21T18:20:11.134Z,0
2023-02-21T18:25:15.338Z,0
2023-02-21T18:30:19.497Z,0
2023-02-21T18:35:23.639Z,0
2023-02-21T18:40:27.818Z,0
2023-02-21T18:45:31.992Z,0
2023-02-21T18:50:34.235Z,0
2023-02-21T18:55:38.396Z,0
2023-02-21T19:00:40.707Z,0
2023-02-21T19:05:44.824Z,0
2023-02-21T19:10:48.962Z,0
2023-02-21T19:15:53.162Z,0
2023-02-21T19:20:57.321Z,0
2023-02-21T19:26:01.456Z,0
2023-02-21T19:31:05.633Z,0
2023-02-21T19:36:09.816Z,0
2023-02-21T19:41:14.103Z,0
2023-02-21T19:46:18.121Z,0
2023-02-21T19:51:22.290Z,0
2023-02-21T19:56:26.436Z,0
2023-02-21T20:01:30.655Z,0
2023-02-21T20:06:34.776Z,0
2023-02-21T20:11:38.960Z,0
2023-02-21T20:16:43.136Z,0
2023-02-21T20:21:47.244Z,0
2023-02-21T20:26:51.406Z,0
2023-02-21T20:31:55.597Z,0
2023-02-21T20:36:59.708Z,0
2023-02-21T20:42:03.869Z,0
2023-02-21T20:47:06.163Z,0
2023-02-21T20:52:10.311Z,0
2023-02-21T20:57:14.480Z,0
2023-02-21T21:02:16.736Z,0
2023-02-21T21:07:20.908Z,0
2023-02-21T21:12:25.077Z,0
2023-02-21T21:17:29.226Z,0
2023-02-21T21:22:33.440Z,0
2023-02-21T21:27:37.682Z,0
2023-02-21T21:32:41.758Z,0
2023-02-21T21:37:45.935Z,0
2023-02-21T21:42:50.086Z,0
2023-02-21T21:47:54.203Z,0
2023-02-21T21:52:58.498Z,0
2023-02-21T21:58:02.546Z,0
2023-02-21T22:03:06.723Z,0
2023-02-21T22:08:10.870Z,0
2023-02-21T22:13:15.047Z,0
2023-02-21T22:18:19.235Z,0
2023-02-21T22:23:23.361Z,0
2023-02-21T22:28:27.656Z,0
2023-02-21T22:33:31.681Z,0
2023-02-21T22:38:35.848Z,0
2023-02-21T22:43:40.008Z,0
2023-02-21T22:48:42.289Z,0
2023-02-21T22:53:46.453Z,0
2023-02-21T22:58:48.736Z,0
2023-02-21T23:03:52.860Z,0
2023-02-21T23:08:57.048Z,0
2023-02-21T23:14:01.234Z,0
2023-02-21T23:19:05.352Z,0
2023-02-21T23:24:09.499Z,0
2023-02-21T23:29:13.848Z,0
2023-02-21T23:34:17.855Z,0
2023-02-21T23:39:22.032Z,0
2023-02-21T23:44:26.170Z,0
2023-02-21T23:49:30.343Z,0
2023-02-21T23:54:34.528Z,0
2023-02-21T23:59:38.664Z,0
